Time;durP1;ratioP1;P1;durP2;ratioP2;P2;SDS_P1;SDS_P2;PMS_P1;PMS_P2;Temp;Humidity;BMP_temperature;BMP_pressure;BME280_temperature;BME280_humidity;BME280_pressure;Samples;Min_cycle;Max_cycle;Signal;HPM_P1;HPM_P2
2021/04/05 00:00:43;;;;;;;43.40;19.93;;;6.70;99.90;;;;;;5067308;28;20288;-75
2021/04/05 00:03:08;;;;;;;44.23;19.77;;;6.70;99.90;;;;;;5085889;28;20315;-75
2021/04/05 00:05:37;;;;;;;40.63;19.07;;;6.70;99.90;;;;;;5072118;28;20199;-75
2021/04/05 00:08:05;;;;;;;37.50;18.20;;;6.60;99.90;;;;;;5070426;28;20637;-75
2021/04/05 00:10:33;;;;;;;40.83;18.10;;;6.60;99.90;;;;;;5070982;28;20187;-74
2021/04/05 00:13:01;;;;;;;39.17;16.70;;;6.70;99.90;;;;;;5073019;28;20172;-75
2021/04/05 00:15:28;;;;;;;34.37;16.30;;;6.60;99.90;;;;;;5067207;28;20396;-75
2021/04/05 00:17:54;;;;;;;40.37;16.53;;;6.70;99.90;;;;;;5069849;28;20195;-75
2021/04/05 00:20:28;;;;;;;40.63;16.73;;;6.60;99.90;;;;;;5066848;28;20538;-74
2021/04/05 00:22:53;;;;;;;36.20;15.27;;;6.60;99.90;;;;;;5073940;28;20186;-75
2021/04/05 00:25:19;;;;;;;34.87;15.30;;;6.50;99.90;;;;;;5072472;28;20214;-76
2021/04/05 00:27:45;;;;;;;33.40;14.60;;;6.50;99.90;;;;;;5069187;28;20204;-75
2021/04/05 00:30:18;;;;;;;37.30;16.23;;;6.50;99.90;;;;;;5066946;28;20328;-75
2021/04/05 00:32:48;;;;;;;39.27;16.03;;;6.40;99.90;;;;;;5067971;28;20219;-75
2021/04/05 00:35:16;;;;;;;43.37;17.67;;;6.30;99.90;;;;;;5070275;28;20180;-75
2021/04/05 00:37:44;;;;;;;39.40;16.80;;;6.30;99.90;;;;;;5071650;28;20206;-75
2021/04/05 00:40:12;;;;;;;42.93;16.37;;;6.20;99.90;;;;;;5069816;28;20192;-75
2021/04/05 00:42:39;;;;;;;39.57;16.83;;;6.20;99.90;;;;;;5057763;28;20657;-74
2021/04/05 00:45:08;;;;;;;34.10;16.23;;;6.20;99.90;;;;;;5071281;28;20238;-75
2021/04/05 00:47:39;;;;;;;37.53;16.40;;;6.20;99.90;;;;;;5072584;28;20187;-75
2021/04/05 00:50:09;;;;;;;39.00;16.47;;;6.20;99.90;;;;;;5072166;28;20176;-75
2021/04/05 00:52:36;;;;;;;44.20;15.67;;;6.30;99.90;;;;;;5069994;28;20184;-75
2021/04/05 00:55:03;;;;;;;42.00;17.27;;;6.20;99.90;;;;;;5067242;28;20596;-74
2021/04/05 00:57:29;;;;;;;33.07;15.80;;;6.20;99.90;;;;;;5065093;28;20190;-75
2021/04/05 00:59:55;;;;;;;38.27;14.93;;;6.20;99.90;;;;;;5067065;28;20536;-74
2021/04/05 01:02:21;;;;;;;38.80;15.23;;;6.30;99.90;;;;;;5067579;28;20253;-75
2021/04/05 01:04:46;;;;;;;39.70;15.33;;;6.30;99.90;;;;;;5070500;28;20575;-75
2021/04/05 01:07:12;;;;;;;36.07;14.60;;;6.20;99.90;;;;;;5072632;28;20669;-74
2021/04/05 01:09:38;;;;;;;35.43;14.07;;;6.20;99.90;;;;;;5068344;28;20179;-75
2021/04/05 01:12:04;;;;;;;35.70;14.50;;;6.20;99.90;;;;;;5073221;28;20609;-74
2021/04/05 01:14:29;;;;;;;34.47;14.57;;;6.10;99.90;;;;;;5069785;28;20191;-74
2021/04/05 01:16:55;;;;;;;38.00;13.97;;;6.20;99.90;;;;;;5071295;28;20183;-75
2021/04/05 01:19:21;;;;;;;32.90;14.23;;;6.30;99.90;;;;;;5072331;28;20686;-74
2021/04/05 01:21:49;;;;;;;31.33;13.17;;;6.20;99.90;;;;;;5069099;28;22037;-74
2021/04/05 01:24:15;;;;;;;42.93;13.33;;;6.10;99.90;;;;;;5068773;28;20297;-75
2021/04/05 01:26:41;;;;;;;37.37;13.37;;;6.10;99.90;;;;;;5052032;28;20746;-75
2021/04/05 01:29:07;;;;;;;34.67;13.00;;;6.10;99.90;;;;;;5072135;28;20183;-74
2021/04/05 01:31:33;;;;;;;33.80;13.50;;;6.10;99.90;;;;;;5072747;28;20568;-75
2021/04/05 01:33:58;;;;;;;36.13;13.37;;;6.10;99.90;;;;;;5069233;28;20250;-74
2021/04/05 01:36:24;;;;;;;35.43;13.77;;;6.10;99.90;;;;;;5069116;28;20172;-75
2021/04/05 01:38:52;;;;;;;36.30;13.30;;;6.10;99.90;;;;;;5068810;28;20187;-75
2021/04/05 01:41:25;;;;;;;32.17;13.47;;;6.00;99.90;;;;;;5069962;28;20211;-75
2021/04/05 01:43:51;;;;;;;33.03;12.90;;;5.90;99.90;;;;;;5068323;28;20215;-75
2021/04/05 01:46:18;;;;;;;35.03;13.40;;;5.70;99.90;;;;;;5067946;28;20205;-75
2021/04/05 01:48:45;;;;;;;46.97;15.90;;;5.80;99.90;;;;;;5067515;28;20176;-75
2021/04/05 01:51:18;;;;;;;32.33;13.70;;;5.90;99.90;;;;;;5066267;28;20227;-75
2021/04/05 01:53:45;;;;;;;36.30;14.80;;;5.90;99.90;;;;;;5068602;28;20676;-75
2021/04/05 01:56:14;;;;;;;29.20;14.13;;;5.90;99.90;;;;;;5068450;28;20267;-74
2021/04/05 01:58:42;;;;;;;37.60;14.33;;;5.90;99.90;;;;;;5070039;28;20200;-74
2021/04/05 02:01:10;;;;;;;45.33;16.73;;;5.90;99.90;;;;;;5069067;28;20215;-74
2021/04/05 02:03:37;;;;;;;42.07;16.73;;;5.90;99.90;;;;;;5068051;28;20208;-75
2021/04/05 02:06:13;;;;;;;50.97;17.23;;;5.90;99.90;;;;;;5068433;28;20198;-75
2021/04/05 02:08:39;;;;;;;47.53;17.97;;;5.90;99.90;;;;;;5068331;28;20175;-75
2021/04/05 02:11:12;;;;;;;46.00;18.17;;;6.10;99.90;;;;;;5064488;28;20198;-75
2021/04/05 02:13:38;;;;;;;41.00;18.93;;;6.10;99.90;;;;;;5070322;28;20267;-75
2021/04/05 02:16:04;;;;;;;44.93;19.13;;;6.20;99.90;;;;;;5071167;28;20191;-76
2021/04/05 02:18:30;;;;;;;45.07;18.37;;;6.30;99.90;;;;;;5068661;28;20352;-75
2021/04/05 02:20:56;;;;;;;42.97;18.37;;;6.30;99.90;;;;;;5067995;28;20284;-74
2021/04/05 02:23:25;;;;;;;46.53;20.13;;;6.30;99.90;;;;;;5067291;28;20656;-74
2021/04/05 02:26:08;;;;;;;49.17;19.63;;;6.30;99.90;;;;;;5062930;28;20227;-74
2021/04/05 02:28:46;;;;;;;58.47;20.37;;;6.40;99.90;;;;;;5069190;28;20187;-75
2021/04/05 02:31:14;;;;;;;54.33;20.77;;;6.40;99.90;;;;;;5066027;28;20196;-74
2021/04/05 02:33:42;;;;;;;61.97;22.27;;;6.50;99.90;;;;;;5072466;28;20192;-75
2021/04/05 02:36:10;;;;;;;53.77;21.67;;;6.50;99.90;;;;;;5051716;28;20653;-75
2021/04/05 02:38:38;;;;;;;55.97;23.23;;;6.60;99.90;;;;;;5067698;28;20181;-75
2021/04/05 02:41:04;;;;;;;54.73;22.70;;;6.70;99.90;;;;;;5067518;28;20195;-76
2021/04/05 02:43:32;;;;;;;60.27;25.50;;;6.80;99.90;;;;;;5066621;28;20619;-75
2021/04/05 02:45:58;;;;;;;64.30;25.40;;;6.70;99.90;;;;;;5066841;28;20246;-75
2021/04/05 02:48:24;;;;;;;63.00;25.47;;;6.80;99.90;;;;;;5068590;28;20228;-76
2021/04/05 02:50:51;;;;;;;54.73;24.23;;;6.80;99.90;;;;;;5070378;28;20187;-75
2021/04/05 02:53:17;;;;;;;58.20;25.53;;;6.80;99.90;;;;;;5069347;28;20682;-75
2021/04/05 02:55:43;;;;;;;65.20;26.17;;;6.90;99.90;;;;;;5070071;28;20210;-75
2021/04/05 02:58:09;;;;;;;56.60;25.33;;;6.90;99.90;;;;;;5068019;28;20241;-75
2021/04/05 03:00:36;;;;;;;64.57;25.97;;;6.80;99.90;;;;;;5070381;28;20192;-74
2021/04/05 03:03:02;;;;;;;65.47;25.97;;;6.90;99.90;;;;;;5066731;28;20190;-75
2021/04/05 03:05:28;;;;;;;63.23;25.60;;;7.00;99.90;;;;;;5068828;28;20207;-74
2021/04/05 03:07:54;;;;;;;68.97;27.73;;;7.00;99.90;;;;;;5068001;28;20675;-75
2021/04/05 03:10:26;;;;;;;58.57;26.07;;;7.00;99.90;;;;;;5065455;28;20189;-75
2021/04/05 03:12:56;;;;;;;57.27;24.67;;;7.00;99.90;;;;;;5068720;28;20646;-75
2021/04/05 03:15:24;;;;;;;63.90;25.43;;;7.00;99.90;;;;;;5071449;28;20193;-75
2021/04/05 03:17:54;;;;;;;56.27;26.53;;;7.10;99.90;;;;;;5071491;28;20196;-75
2021/04/05 03:20:23;;;;;;;61.00;24.87;;;7.20;99.90;;;;;;5071799;28;20199;-76
2021/04/05 03:22:49;;;;;;;61.53;25.53;;;7.20;99.90;;;;;;5071916;28;20186;-75
2021/04/05 03:25:17;;;;;;;57.30;25.43;;;7.30;99.90;;;;;;5073318;28;20567;-75
2021/04/05 03:27:44;;;;;;;62.53;26.03;;;7.40;99.90;;;;;;5072110;28;20188;-75
2021/04/05 03:30:17;;;;;;;63.23;25.93;;;7.30;99.90;;;;;;5071652;28;20647;-75
2021/04/05 03:32:46;;;;;;;62.67;25.70;;;7.40;99.90;;;;;;5071843;28;20198;-75
2021/04/05 03:35:17;;;;;;;62.87;26.43;;;7.50;99.90;;;;;;5071325;28;20180;-76
2021/04/05 03:37:45;;;;;;;62.50;25.47;;;7.50;99.90;;;;;;5069038;28;20203;-75
2021/04/05 03:40:11;;;;;;;64.77;27.50;;;7.60;99.90;;;;;;5069939;28;20191;-75
2021/04/05 03:42:49;;;;;;;67.30;27.60;;;7.60;99.90;;;;;;5073373;28;20322;-76
2021/04/05 03:45:27;;;;;;;70.67;28.30;;;7.70;99.90;;;;;;5071436;28;20536;-76
2021/04/05 03:48:20;;;;;;;70.17;28.77;;;7.70;99.90;;;;;;5073371;28;20186;-75
2021/04/05 03:51:00;;;;;;;63.37;28.03;;;7.70;99.90;;;;;;5072436;28;20180;-75
2021/04/05 03:53:55;;;;;;;70.83;28.73;;;7.70;99.90;;;;;;5046683;28;20192;-76
2021/04/05 03:56:25;;;;;;;68.10;30.37;;;7.80;99.90;;;;;;5072596;28;20242;-76
2021/04/05 03:58:54;;;;;;;67.87;29.40;;;7.90;99.90;;;;;;5067721;28;20672;-76
2021/04/05 04:01:27;;;;;;;64.87;30.40;;;7.90;99.90;;;;;;5072923;28;20229;-75
2021/04/05 04:04:03;;;;;;;78.93;31.03;;;7.90;99.90;;;;;;5074234;28;20182;-76
2021/04/05 04:06:40;;;;;;;77.67;30.33;;;7.90;99.90;;;;;;5067073;28;20578;-76
2021/04/05 04:09:08;;;;;;;67.80;31.37;;;7.90;99.90;;;;;;5069874;28;20611;-76
2021/04/05 04:11:36;;;;;;;70.13;32.30;;;7.90;99.90;;;;;;5072267;28;20189;-76
2021/04/05 04:14:05;;;;;;;70.73;31.57;;;7.90;99.90;;;;;;5070450;28;20201;-76
2021/04/05 04:16:32;;;;;;;68.63;31.07;;;7.90;99.90;;;;;;5065327;28;20198;-76
2021/04/05 04:19:02;;;;;;;78.37;30.90;;;7.90;99.90;;;;;;5071557;28;20197;-76
2021/04/05 04:21:29;;;;;;;64.90;30.07;;;8.10;99.90;;;;;;5064638;28;20198;-76
2021/04/05 04:23:56;;;;;;;66.00;29.13;;;8.10;99.90;;;;;;5069753;28;20648;-75
2021/04/05 04:26:23;;;;;;;70.67;30.40;;;8.10;99.90;;;;;;5069733;28;20188;-76
2021/04/05 04:28:50;;;;;;;65.67;30.50;;;8.20;99.90;;;;;;5069243;28;20678;-76
2021/04/05 04:31:19;;;;;;;65.20;29.17;;;8.10;99.90;;;;;;5070884;28;20243;-75
2021/04/05 04:33:47;;;;;;;69.07;30.33;;;8.20;99.90;;;;;;5070152;28;20188;-75
2021/04/05 04:36:13;;;;;;;69.00;29.77;;;8.10;99.90;;;;;;5070678;28;20242;-75
2021/04/05 04:38:40;;;;;;;66.10;29.97;;;8.20;99.90;;;;;;5067521;28;20649;-75
2021/04/05 04:41:06;;;;;;;64.00;28.97;;;8.20;99.90;;;;;;5069016;28;20590;-76
2021/04/05 04:43:31;;;;;;;66.90;29.67;;;8.20;99.90;;;;;;5072237;28;20292;-76
2021/04/05 04:45:57;;;;;;;60.93;29.93;;;8.20;99.90;;;;;;5067536;28;20193;-75
2021/04/05 04:48:23;;;;;;;68.20;29.77;;;8.20;99.90;;;;;;5069701;28;20183;-75
2021/04/05 04:50:48;;;;;;;61.53;29.37;;;8.20;99.90;;;;;;5068718;28;20180;-76
2021/04/05 04:53:14;;;;;;;64.97;29.93;;;8.30;99.90;;;;;;5070132;28;20199;-76
2021/04/05 04:55:40;;;;;;;61.73;28.93;;;8.30;99.90;;;;;;5069724;28;20193;-76
2021/04/05 04:58:06;;;;;;;69.03;30.00;;;8.30;99.90;;;;;;5070473;28;20185;-76
2021/04/05 05:00:33;;;;;;;70.17;28.90;;;8.30;99.90;;;;;;5070920;28;20189;-76
2021/04/05 05:03:00;;;;;;;70.13;28.50;;;8.30;99.90;;;;;;5067903;28;20186;-76
2021/04/05 05:05:35;;;;;;;61.83;28.90;;;8.40;99.90;;;;;;5070781;28;20570;-76
2021/04/05 05:08:01;;;;;;;66.80;27.97;;;8.50;99.90;;;;;;5070520;28;20181;-76
2021/04/05 05:10:28;;;;;;;69.63;28.77;;;8.50;99.90;;;;;;5070894;28;20587;-76
2021/04/05 05:12:54;;;;;;;60.27;28.57;;;8.50;99.90;;;;;;5070259;28;20183;-76
2021/04/05 05:15:21;;;;;;;65.03;29.20;;;8.50;99.90;;;;;;5069180;28;20243;-76
2021/04/05 05:17:48;;;;;;;60.40;28.40;;;8.60;99.90;;;;;;5069409;28;20189;-76
2021/04/05 05:20:16;;;;;;;65.73;27.43;;;8.60;99.90;;;;;;5074693;28;20196;-77
2021/04/05 05:22:46;;;;;;;63.00;27.83;;;8.70;99.90;;;;;;5070401;28;20193;-77
2021/04/05 05:25:16;;;;;;;73.07;27.60;;;8.60;99.90;;;;;;5067432;28;20215;-76
2021/04/05 05:27:46;;;;;;;67.57;27.97;;;8.60;99.90;;;;;;5073748;28;20176;-76
2021/04/05 05:30:20;;;;;;;66.33;27.97;;;8.60;99.90;;;;;;5071004;28;20214;-75
2021/04/05 05:32:47;;;;;;;59.57;27.77;;;8.60;99.90;;;;;;5070490;28;20190;-76
2021/04/05 05:35:14;;;;;;;63.47;27.13;;;8.60;99.90;;;;;;5067252;28;20292;-77
2021/04/05 05:37:39;;;;;;;63.83;27.20;;;8.60;99.90;;;;;;5067856;28;20189;-76
2021/04/05 05:40:06;;;;;;;65.60;27.03;;;8.60;99.90;;;;;;5065306;28;20612;-76
2021/04/05 05:43:03;;;;;;;61.57;27.43;;;8.60;99.90;;;;;;5071313;28;20227;-76
2021/04/05 05:45:33;;;;;;;61.43;25.87;;;8.70;99.90;;;;;;5072169;28;20232;-76
2021/04/05 05:48:23;;;;;;;60.23;25.70;;;8.70;99.90;;;;;;5070953;28;20186;-77
2021/04/05 05:51:05;;;;;;;53.80;24.07;;;8.70;99.90;;;;;;5068034;28;20190;-76
2021/04/05 05:53:52;;;;;;;56.97;25.53;;;8.70;99.90;;;;;;5071838;28;20211;-76
2021/04/05 05:56:44;;;;;;;55.50;25.20;;;8.70;99.90;;;;;;5072876;28;20290;-76
2021/04/05 05:59:37;;;;;;;61.33;25.63;;;8.70;99.90;;;;;;5068871;28;20192;-77
2021/04/05 06:02:30;;;;;;;63.63;24.23;;;8.60;99.90;;;;;;5069631;28;20661;-76
2021/04/05 06:05:07;;;;;;;60.13;25.30;;;8.60;99.90;;;;;;5070152;28;20210;-76
2021/04/05 06:08:01;;;;;;;56.63;24.50;;;8.50;99.90;;;;;;5071077;28;20258;-76
2021/04/05 06:11:04;;;;;;;61.13;24.70;;;8.40;99.90;;;;;;5071015;28;20219;-76
2021/04/05 06:13:43;;;;;;;56.47;24.57;;;8.50;99.90;;;;;;5090974;28;20186;-76
2021/04/05 06:16:14;;;;;;;52.53;23.90;;;8.60;99.90;;;;;;5068914;28;20270;-77
2021/04/05 06:18:57;;;;;;;53.63;22.90;;;8.70;99.90;;;;;;5069542;28;20262;-76
2021/04/05 06:21:40;;;;;;;52.77;22.97;;;8.70;99.90;;;;;;5068336;28;20183;-77
2021/04/05 06:24:38;;;;;;;51.53;22.43;;;8.90;99.90;;;;;;5073724;28;20217;-76
2021/04/05 06:27:14;;;;;;;48.73;22.77;;;9.00;99.90;;;;;;5057273;28;20251;-76
2021/04/05 06:30:04;;;;;;;46.47;22.27;;;9.20;99.90;;;;;;5067208;28;20243;-77
2021/04/05 06:32:52;;;;;;;51.93;22.70;;;9.30;99.90;;;;;;5051301;28;20188;-76
2021/04/05 06:35:48;;;;;;;47.40;21.07;;;9.40;99.90;;;;;;5066493;28;20200;-76
2021/04/05 06:38:28;;;;;;;48.67;20.53;;;9.50;99.90;;;;;;5065494;28;20907;-76
2021/04/05 06:40:57;;;;;;;51.07;21.43;;;9.60;99.90;;;;;;5065279;28;20184;-76
2021/04/05 06:43:33;;;;;;;43.90;21.10;;;9.50;99.90;;;;;;5068682;28;20283;-76
2021/04/05 06:46:22;;;;;;;42.13;20.87;;;9.50;99.90;;;;;;5060487;28;20569;-76
2021/04/05 06:49:22;;;;;;;51.40;20.60;;;9.50;99.90;;;;;;5066684;28;20549;-76
2021/04/05 06:52:16;;;;;;;46.90;20.47;;;9.60;99.90;;;;;;5060461;28;20185;-76
2021/04/05 06:55:13;;;;;;;47.37;19.90;;;9.60;99.90;;;;;;5058621;28;20230;-76
2021/04/05 06:58:12;;;;;;;42.83;19.40;;;9.70;99.90;;;;;;5062406;28;20686;-77
2021/04/05 07:01:22;;;;;;;47.27;18.67;;;9.80;99.90;;;;;;5068487;28;20197;-76
2021/04/05 07:03:59;;;;;;;36.97;18.23;;;9.70;99.90;;;;;;5063645;28;20340;-76
2021/04/05 07:06:49;;;;;;;41.03;18.10;;;9.60;99.90;;;;;;5066061;28;20208;-77
2021/04/05 07:09:52;;;;;;;43.90;17.20;;;9.60;99.90;;;;;;5071753;28;20178;-77
2021/04/05 07:12:50;;;;;;;43.37;17.10;;;9.60;99.90;;;;;;5068006;28;20201;-77
2021/04/05 07:15:19;;;;;;;38.37;18.23;;;9.60;99.90;;;;;;5067629;28;20182;-77
2021/04/05 07:18:10;;;;;;;41.17;17.43;;;9.70;99.90;;;;;;5067358;28;20222;-76
2021/04/05 07:21:08;;;;;;;42.90;16.97;;;9.70;99.90;;;;;;5068585;28;20181;-76
2021/04/05 07:24:12;;;;;;;42.80;17.20;;;9.70;99.90;;;;;;5061504;28;20190;-76
2021/04/05 07:26:45;;;;;;;39.90;16.83;;;9.70;99.90;;;;;;5081804;28;20196;-76
2021/04/05 07:29:17;;;;;;;38.23;17.30;;;9.50;99.90;;;;;;5069433;28;20216;-76
2021/04/05 07:32:22;;;;;;;37.90;17.70;;;9.40;99.90;;;;;;5081585;28;20182;-76
2021/04/05 07:34:50;;;;;;;42.80;17.17;;;9.30;99.90;;;;;;5062577;28;20183;-76
2021/04/05 07:37:33;;;;;;;39.63;16.63;;;9.30;99.90;;;;;;5067861;28;20196;-77
2021/04/05 07:40:15;;;;;;;37.17;16.33;;;9.20;99.90;;;;;;5065429;28;20206;-77
2021/04/05 07:42:52;;;;;;;41.50;18.03;;;9.20;99.90;;;;;;5066019;28;20218;-77
2021/04/05 07:45:26;;;;;;;24.83;9.23;;;9.30;99.90;;;;;;5064710;28;20203;-77
2021/04/05 07:48:10;;;;;;;24.30;7.67;;;9.20;99.90;;;;;;5064273;28;20863;-76
2021/04/05 07:50:52;;;;;;;16.87;5.17;;;8.80;99.90;;;;;;5061651;28;20272;-76
2021/04/05 07:53:47;;;;;;;20.47;5.57;;;8.30;99.90;;;;;;5051570;28;20185;-76
2021/04/05 07:56:27;;;;;;;17.73;5.77;;;8.10;99.90;;;;;;5042377;28;20192;-76
2021/04/05 07:59:12;;;;;;;20.17;4.23;;;8.10;99.90;;;;;;5064734;28;20185;-77
2021/04/05 08:01:57;;;;;;;15.13;4.33;;;8.20;99.90;;;;;;5073188;28;20619;-76
2021/04/05 08:04:35;;;;;;;15.93;4.73;;;8.20;99.90;;;;;;5070088;28;20549;-76
2021/04/05 08:07:26;;;;;;;17.73;4.70;;;8.10;99.90;;;;;;5072601;28;20279;-76
2021/04/05 08:10:07;;;;;;;17.77;4.30;;;8.00;99.90;;;;;;5071284;28;20946;-77
2021/04/05 08:12:51;;;;;;;18.43;4.63;;;8.00;99.90;;;;;;5074727;28;20191;-77
2021/04/05 08:15:54;;;;;;;18.83;4.60;;;7.90;99.90;;;;;;5069731;28;20635;-76
2021/04/05 08:18:50;;;;;;;21.10;5.10;;;8.00;99.90;;;;;;5070160;28;20185;-76
2021/04/05 08:21:19;;;;;;;17.77;4.77;;;8.10;99.90;;;;;;5071990;28;20521;-77
2021/04/05 08:24:24;;;;;;;17.20;4.43;;;8.30;99.90;;;;;;5072299;28;20230;-77
2021/04/05 08:27:21;;;;;;;15.77;3.50;;;8.30;99.90;;;;;;5068819;28;20215;-76
2021/04/05 08:29:59;;;;;;;19.63;4.63;;;8.30;99.90;;;;;;5069888;28;20646;-76
2021/04/05 08:32:49;;;;;;;19.80;4.87;;;8.40;99.90;;;;;;5072199;28;20184;-77
2021/04/05 08:35:34;;;;;;;21.93;4.57;;;8.40;99.90;;;;;;5066608;28;20188;-77
2021/04/05 08:38:00;;;;;;;18.93;4.03;;;8.30;99.90;;;;;;5072246;28;20194;-76
2021/04/05 08:40:38;;;;;;;8.87;2.10;;;7.80;99.90;;;;;;5069612;28;20180;-76
2021/04/05 08:43:28;;;;;;;10.50;1.60;;;7.30;99.90;;;;;;5073869;28;20231;-76
2021/04/05 08:46:06;;;;;;;5.23;1.20;;;6.90;99.90;;;;;;5070451;28;20210;-76
2021/04/05 08:48:38;;;;;;;8.10;1.30;;;6.30;99.90;;;;;;5068514;28;20655;-76
2021/04/05 08:51:13;;;;;;;6.73;1.23;;;6.10;99.90;;;;;;5071934;28;20183;-77
2021/04/05 08:53:46;;;;;;;10.57;1.90;;;6.00;99.90;;;;;;5070341;28;20317;-76
2021/04/05 08:56:14;;;;;;;12.20;1.73;;;6.00;99.90;;;;;;5071645;28;20283;-76
2021/04/05 08:58:55;;;;;;;14.33;1.90;;;6.00;99.90;;;;;;5068461;28;20180;-77
2021/04/05 09:01:30;;;;;;;18.10;2.13;;;5.90;99.90;;;;;;5070105;28;20663;-76
2021/04/05 09:03:57;;;;;;;21.87;2.77;;;5.80;99.90;;;;;;5071557;28;20186;-76
2021/04/05 09:06:32;;;;;;;21.47;2.90;;;5.90;99.90;;;;;;5071066;28;20199;-76
2021/04/05 09:09:01;;;;;;;15.80;2.23;;;6.10;99.90;;;;;;5070725;28;20183;-77
2021/04/05 09:11:29;;;;;;;18.70;2.47;;;5.90;99.90;;;;;;5072729;28;20193;-76
2021/04/05 09:13:58;;;;;;;19.17;2.87;;;5.80;99.90;;;;;;5070922;28;21594;-76
2021/04/05 09:16:52;;;;;;;23.83;3.00;;;5.80;99.90;;;;;;5061809;28;20180;-77
2021/04/05 09:19:21;;;;;;;18.50;2.70;;;5.60;99.90;;;;;;5092790;28;20194;-77
2021/04/05 09:21:56;;;;;;;22.57;3.20;;;5.70;99.90;;;;;;5072116;28;20272;-77
2021/04/05 09:24:37;;;;;;;19.93;3.30;;;5.80;99.90;;;;;;5070943;28;20205;-77
2021/04/05 09:27:27;;;;;;;26.73;3.40;;;6.20;99.90;;;;;;5074830;28;20215;-77
2021/04/05 09:30:30;;;;;;;25.90;3.47;;;6.50;99.90;;;;;;5059068;28;20938;-77
2021/04/05 09:33:14;;;;;;;24.23;3.47;;;6.40;99.90;;;;;;5084867;28;20187;-77
2021/04/05 09:36:07;;;;;;;13.30;3.07;;;6.30;99.90;;;;;;5067508;28;20182;-76
2021/04/05 09:39:01;;;;;;;14.90;2.40;;;5.90;99.90;;;;;;5072057;28;20618;-76
2021/04/05 09:41:35;;;;;;;21.07;2.90;;;5.50;99.90;;;;;;5063633;28;20219;-76
2021/04/05 09:44:19;;;;;;;25.20;2.97;;;5.40;99.90;;;;;;5070055;28;20211;-77
2021/04/05 09:46:56;;;;;;;22.93;3.80;;;5.60;99.90;;;;;;5071677;28;20184;-76
2021/04/05 09:49:42;;;;;;;22.53;3.17;;;5.80;99.90;;;;;;5069398;28;20654;-77
2021/04/05 09:52:39;;;;;;;19.57;2.70;;;5.90;99.90;;;;;;5066004;28;20186;-77
2021/04/05 09:55:12;;;;;;;19.67;3.60;;;5.80;99.90;;;;;;5069281;28;20188;-77
2021/04/05 09:57:46;;;;;;;19.93;2.73;;;6.00;99.90;;;;;;5068921;28;20195;-76
2021/04/05 10:00:18;;;;;;;19.70;3.30;;;6.10;99.90;;;;;;5068924;28;20190;-77
2021/04/05 10:03:00;;;;;;;16.17;2.80;;;6.10;99.90;;;;;;5071504;28;20218;-76
2021/04/05 10:05:27;;;;;;;18.30;2.80;;;5.90;99.90;;;;;;5068978;28;20198;-76
2021/04/05 10:07:55;;;;;;;21.93;2.97;;;5.70;99.90;;;;;;5072165;28;20188;-77
2021/04/05 10:10:24;;;;;;;18.97;3.13;;;5.90;99.90;;;;;;5071110;28;20183;-77
2021/04/05 10:12:52;;;;;;;20.17;2.97;;;5.90;99.90;;;;;;5069775;28;20585;-76
2021/04/05 10:15:21;;;;;;;15.10;2.63;;;6.20;99.90;;;;;;5068660;28;20177;-77
2021/04/05 10:17:59;;;;;;;16.30;2.83;;;6.70;99.90;;;;;;5071319;28;20180;-76
2021/04/05 10:20:30;;;;;;;18.43;2.90;;;7.20;99.90;;;;;;5072662;28;20195;-76
2021/04/05 10:22:58;;;;;;;18.77;2.50;;;7.40;99.90;;;;;;5069009;28;20179;-77
2021/04/05 10:25:25;;;;;;;13.30;2.57;;;7.50;99.90;;;;;;5069366;28;20304;-76
2021/04/05 10:27:57;;;;;;;17.20;2.33;;;7.50;99.90;;;;;;5070210;28;20181;-77
2021/04/05 10:30:33;;;;;;;12.57;2.27;;;7.60;99.90;;;;;;5070067;28;20199;-77
2021/04/05 10:33:06;;;;;;;14.43;2.30;;;7.80;99.90;;;;;;5069640;28;20210;-77
2021/04/05 10:35:36;;;;;;;11.97;2.23;;;7.80;99.90;;;;;;5069995;28;20563;-76
2021/04/05 10:38:05;;;;;;;15.33;2.67;;;7.90;99.90;;;;;;5070574;28;20187;-76
2021/04/05 10:40:34;;;;;;;10.80;2.20;;;8.20;99.90;;;;;;5066148;28;20172;-77
2021/04/05 10:43:09;;;;;;;15.67;2.80;;;8.10;99.90;;;;;;5068461;28;20223;-77
2021/04/05 10:45:37;;;;;;;10.73;1.90;;;7.90;99.90;;;;;;5071624;28;20686;-77
2021/04/05 10:48:05;;;;;;;14.63;2.37;;;7.80;99.90;;;;;;5069640;28;20228;-77
2021/04/05 10:50:34;;;;;;;14.43;2.13;;;7.90;99.90;;;;;;5064226;28;20175;-77
2021/04/05 10:53:13;;;;;;;15.93;2.10;;;8.00;99.90;;;;;;5068715;28;20180;-76
2021/04/05 10:55:45;;;;;;;11.87;1.90;;;7.90;99.90;;;;;;5079402;28;20194;-76
2021/04/05 10:58:15;;;;;;;11.17;1.83;;;8.00;99.90;;;;;;5062772;28;20319;-77
2021/04/05 11:00:46;;;;;;;11.50;1.87;;;8.50;99.90;;;;;;5066050;28;20188;-76
2021/04/05 11:03:17;;;;;;;12.20;2.50;;;8.40;99.90;;;;;;5068608;28;20293;-76
2021/04/05 11:05:46;;;;;;;16.03;2.13;;;8.00;99.90;;;;;;5064701;28;20290;-76
2021/04/05 11:08:19;;;;;;;14.57;2.10;;;7.40;99.90;;;;;;5064070;28;20248;-76
2021/04/05 11:10:46;;;;;;;13.10;2.20;;;7.20;99.90;;;;;;5064219;28;20198;-76
2021/04/05 11:13:20;;;;;;;13.23;2.27;;;7.00;99.90;;;;;;5065176;28;20237;-77
2021/04/05 11:15:47;;;;;;;8.70;1.50;;;6.90;99.90;;;;;;5062535;28;20184;-76
2021/04/05 11:18:16;;;;;;;7.33;1.40;;;6.70;99.90;;;;;;5068517;28;20185;-75
2021/04/05 11:20:44;;;;;;;16.60;2.43;;;6.40;99.90;;;;;;5066573;28;20202;-76
2021/04/05 11:23:09;;;;;;;16.60;2.30;;;6.30;99.90;;;;;;5048591;28;20215;-75
2021/04/05 11:25:39;;;;;;;17.03;2.47;;;6.20;99.90;;;;;;5067879;28;20213;-75
2021/04/05 11:28:28;;;;;;;14.80;2.40;;;6.30;99.90;;;;;;5051444;28;20212;-75
2021/04/05 11:31:08;;;;;;;17.93;2.50;;;6.50;99.90;;;;;;5065855;28;20179;-75
2021/04/05 11:33:39;;;;;;;15.57;2.47;;;6.70;99.90;;;;;;5066786;28;20176;-75
2021/04/05 11:36:06;;;;;;;18.43;2.30;;;6.80;99.90;;;;;;5069293;28;20183;-75
2021/04/05 11:38:42;;;;;;;11.57;2.17;;;6.70;99.90;;;;;;5063402;28;20262;-75
2021/04/05 11:41:08;;;;;;;18.20;2.10;;;7.20;99.90;;;;;;5068731;28;20630;-76
2021/04/05 11:43:38;;;;;;;14.00;2.33;;;7.50;99.90;;;;;;5068313;28;20199;-76
2021/04/05 11:46:08;;;;;;;15.33;2.20;;;8.10;99.90;;;;;;5071099;28;20215;-75
2021/04/05 11:48:34;;;;;;;15.63;3.00;;;8.30;99.90;;;;;;5067527;28;20528;-76
2021/04/05 11:51:00;;;;;;;13.73;2.10;;;8.60;99.90;;;;;;5069350;28;20195;-76
2021/04/05 11:53:40;;;;;;;12.70;2.43;;;8.50;99.90;;;;;;5065129;28;20188;-76
2021/04/05 11:56:15;;;;;;;14.87;2.37;;;8.20;99.90;;;;;;5066771;28;20267;-76
2021/04/05 11:58:52;;;;;;;13.67;2.23;;;8.20;99.90;;;;;;5067142;28;20294;-76
2021/04/05 12:01:21;;;;;;;15.87;2.83;;;7.40;99.90;;;;;;5066818;28;20194;-75
2021/04/05 12:04:20;;;;;;;13.83;2.60;;;7.30;99.90;;;;;;5068240;28;20389;-75
2021/04/05 12:06:58;;;;;;;21.17;2.20;;;7.50;99.90;;;;;;5062100;28;20344;-74
2021/04/05 12:09:37;;;;;;;13.73;2.10;;;7.40;99.90;;;;;;5067227;28;20274;-75
2021/04/05 12:12:06;;;;;;;12.27;2.20;;;7.60;99.90;;;;;;5065869;28;20206;-76
2021/04/05 12:14:33;;;;;;;22.00;2.97;;;7.90;99.90;;;;;;5066777;28;20179;-75
2021/04/05 12:17:01;;;;;;;13.97;2.07;;;8.80;99.90;;;;;;5070260;28;20671;-75
2021/04/05 12:19:38;;;;;;;13.90;2.10;;;8.70;99.90;;;;;;5067285;28;20656;-75
2021/04/05 12:22:06;;;;;;;17.00;2.13;;;8.80;99.90;;;;;;5068095;28;20294;-76
2021/04/05 12:24:39;;;;;;;15.57;2.73;;;9.10;99.90;;;;;;5065149;28;20211;-75
2021/04/05 12:27:08;;;;;;;10.90;1.83;;;8.80;99.90;;;;;;5065827;28;20185;-76
2021/04/05 12:29:35;;;;;;;12.27;2.20;;;8.70;99.90;;;;;;5064427;28;20211;-76
2021/04/05 12:32:05;;;;;;;15.47;2.93;;;9.30;99.90;;;;;;5068585;28;20228;-76
2021/04/05 12:34:34;;;;;;;13.07;2.50;;;10.90;99.90;;;;;;5068978;28;20568;-76
2021/04/05 12:37:02;;;;;;;14.50;2.30;;;11.00;99.90;;;;;;5066803;28;20285;-76
2021/04/05 12:39:31;;;;;;;14.07;2.23;;;10.40;99.90;;;;;;5062839;28;20275;-75
2021/04/05 12:41:58;;;;;;;13.30;2.50;;;9.20;99.90;;;;;;5067759;28;20232;-75
2021/04/05 12:44:30;;;;;;;12.83;1.90;;;8.40;99.90;;;;;;5064981;28;20207;-75
2021/04/05 12:47:00;;;;;;;16.10;2.27;;;7.70;99.90;;;;;;5069440;28;20210;-75
2021/04/05 12:49:29;;;;;;;17.30;2.03;;;7.20;99.90;;;;;;5069343;28;20206;-75
2021/04/05 12:51:59;;;;;;;12.43;1.97;;;6.90;99.90;;;;;;5069584;28;20183;-76
2021/04/05 12:54:28;;;;;;;11.40;1.57;;;7.00;99.90;;;;;;5076603;28;20222;-76
2021/04/05 12:56:58;;;;;;;15.77;2.00;;;7.20;99.90;;;;;;5067283;28;20736;-75
2021/04/05 12:59:27;;;;;;;9.73;1.80;;;7.40;99.90;;;;;;5068903;28;20171;-75
2021/04/05 13:01:55;;;;;;;11.53;1.90;;;7.80;99.90;;;;;;5068363;28;20207;-75
2021/04/05 13:04:23;;;;;;;14.80;2.00;;;8.00;99.90;;;;;;5066286;28;20219;-75
2021/04/05 13:06:59;;;;;;;12.53;1.80;;;8.00;99.90;;;;;;5067426;28;20209;-75
2021/04/05 13:09:35;;;;;;;12.53;2.30;;;7.50;99.90;;;;;;5067961;28;20252;-76
2021/04/05 13:12:04;;;;;;;9.60;1.67;;;7.20;99.90;;;;;;5068933;28;21166;-76
2021/04/05 13:14:35;;;;;;;10.30;1.47;;;7.20;99.90;;;;;;5071520;28;20215;-76